Flight Track Log - Related Links

Times and Time Zones

All times are in EDT time to prevent confusion due to time zone crossing. See the N6600L flight status page for this flight to view local times or setup timezone preferences in your user account.

Time Position Orientation Groundspeed Altitude Reporting Facility
EDT Latitude Longitude Course Direction KTS MPH feet Rate Location/Type
Tue 10:19:19 AM 47.4500 -70.2833 229° Southwest 120 138 4,700  Level Montreal Center
Tue 10:20:19 AM 47.4167 -70.2833 180° South 120 138 5,300 650 Climbing Montreal Center
Tue 10:21:19 AM 47.4000 -70.3000 214° Southwest 120 138 6,000 350 Climbing Montreal Center
Tue 10:22:00 AM 47.2527 -70.2732 205° Southwest  Level Estimated
Tue 10:22:19 AM 47.3833 -70.3667 250° West 140 161 6,000  Level Montreal Center
Tue 10:23:00 AM 47.2242 -70.3211 229° Southwest  Level FlightAware Approximate
Tue 10:23:19 AM 47.3333 -70.3833 193° South 150 173 6,000  Level Montreal Center
Tue 10:24:00 AM 47.1955 -70.3689 229° Southwest  Level FlightAware Approximate
Tue 10:24:19 AM 47.3000 -70.4167 214° Southwest 150 173 6,000  Level Montreal Center
Tue 10:25:19 AM 47.2667 -70.4500 214° Southwest 160 184 6,000  Level Montreal Center
Tue 10:27:19 AM 47.1667 -70.4667 186° South 150 173 6,000  Level Montreal Center
Tue 10:28:19 AM 47.1333 -70.4667 180° South 160 184 6,000  Level Montreal Center
Tue 10:29:19 AM 47.0833 -70.4667 180° South 160 184 6,000 50 Level Montreal Center
Tue 10:30:19 AM 47.0500 -70.4667 180° South 160 184 6,100  Climbing Montreal Center
Tue 10:31:19 AM 47.0000 -70.4833 193° South 160 184 6,000 -50 Descending Montreal Center
Tue 10:32:19 AM 46.9500 -70.4833 180° South 160 184 6,000  Level Montreal Center
Tue 10:33:19 AM 46.9167 -70.4833 180° South 160 184 6,000  Level Montreal Center
Tue 10:34:19 AM 46.8667 -70.4667 167° South 160 184 6,000  Level Montreal Center
Tue 10:35:19 AM 46.8167 -70.4667 180° South 160 184 6,000 250 Level Montreal Center
Tue 10:36:19 AM 46.7833 -70.4833 199° South 150 173 6,500 750 Climbing Montreal Center
Tue 10:37:19 AM 46.7500 -70.4833 180° South 100 115 7,500 800 Climbing Montreal Center
Tue 10:38:19 AM 46.7167 -70.4833 180° South 110 127 8,100 250 Climbing Montreal Center
Tue 10:39:19 AM 46.6833 -70.4833 180° South 140 161 8,000  Descending Montreal Center
Tue 10:40:19 AM 46.6333 -70.5000 193° South 150 173 8,100 50 Climbing Montreal Center
Tue 10:41:19 AM 46.6000 -70.5000 180° South 160 184 8,100  Level Montreal Center
Tue 10:42:19 AM 46.5500 -70.5000 180° South 160 184 8,100  Level Montreal Center
Tue 10:43:19 AM 46.5000 -70.5000 180° South 150 173 8,100  Level Montreal Center
Tue 10:44:19 AM 46.4667 -70.5167 199° South 160 184 8,100  Level Montreal Center
Tue 10:45:19 AM 46.4167 -70.5167 180° South 160 184 8,100  Level Montreal Center
Tue 10:46:19 AM 46.3667 -70.5167 180° South 160 184 8,100  Level Montreal Center
Tue 10:47:19 AM 46.3333 -70.5167 180° South 160 184 8,100  Level Montreal Center
Tue 10:48:19 AM 46.2833 -70.5333 193° South 160 184 8,100  Level Montreal Center
Tue 10:49:19 AM 46.2333 -70.5333 180° South 160 184 8,100  Level Montreal Center
Tue 10:50:19 AM 46.2000 -70.5667 215° Southwest 160 184 8,100  Level Montreal Center
Tue 10:51:19 AM 46.1500 -70.5667 180° South 150 173 8,100  Level Montreal Center
Tue 10:52:19 AM 46.1167 -70.5667 180° South 150 173 8,100  Level Montreal Center
Tue 10:53:19 AM 46.0667 -70.5833 193° South 150 173 8,100  Level Montreal Center
Tue 10:54:19 AM 46.0167 -70.5833 180° South 160 184 8,100  Level Montreal Center
Tue 10:55:19 AM 45.9833 -70.5833 180° South 150 173 8,100  Level Montreal Center
Tue 10:56:19 AM 45.9333 -70.5833 180° South 150 173 8,100  Level Montreal Center
Tue 10:57:19 AM 45.9000 -70.6167 215° Southwest 150 173 8,100  Level Montreal Center
Tue 10:58:19 AM 45.8500 -70.6167 180° South 150 173 8,100  Level Montreal Center
Tue 10:59:19 AM 45.8167 -70.6333 199° South 160 184 8,100  Level Montreal Center
Tue 11:00:19 AM 45.7667 -70.6333 180° South 160 184 8,100 50 Level Montreal Center
Tue 11:01:19 AM 45.7167 -70.6333 180° South 150 173 8,200 50 Climbing Montreal Center
Tue 11:02:19 AM 45.6833 -70.6667 215° Southwest 150 173 8,200  Level Montreal Center
Tue 11:03:19 AM 45.6333 -70.6667 180° South 160 184 8,200 -48 Level Montreal Center
Tue 11:04:24 AM 45.5981 -70.6903 205° Southwest 160 184 8,100 -48 Descending Boston Center
Tue 11:05:24 AM 45.5503 -70.7036 191° South 160 184 8,100  Level Boston Center
Tue 11:06:22 AM 45.5064 -70.7019 178° South 160 184 8,100  Level Boston Center
Tue 11:07:22 AM 45.4608 -70.7061 184° South 160 184 8,100  Level Boston Center
Tue 11:08:23 AM 45.4169 -70.7075 181° South 160 184 8,100  Level Boston Center
Tue 11:09:24 AM 45.3797 -70.7117 184° South 160 184 8,100  Level Boston Center
Tue 11:10:24 AM 45.3233 -70.7133 181° South 160 184 8,100  Level Boston Center
Tue 11:11:25 AM 45.2775 -70.7147 181° South 160 184 8,100  Level Boston Center
Tue 11:12:22 AM 45.2339 -70.7158 181° South 160 184 8,100  Level Boston Center
Tue 11:13:23 AM 45.1903 -70.7203 184° South 160 184 8,100  Level Boston Center
Tue 11:14:23 AM 45.1444 -70.7217 181° South 160 184 8,100  Level Boston Center
Tue 11:15:24 AM 45.0986 -70.7228 181° South 160 184 8,100  Level Boston Center
Tue 11:16:24 AM 45.0528 -70.7272 184° South 160 184 8,100  Level Boston Center
Tue 11:17:24 AM 45.0069 -70.7286 181° South 165 190 8,100  Level Boston Center
Tue 11:18:22 AM 44.9592 -70.7300 181° South 165 190 8,100  Level Boston Center
Tue 11:19:22 AM 44.9153 -70.7311 181° South 165 190 8,100  Level Boston Center
Tue 11:20:23 AM 44.8694 -70.7325 181° South 160 184 8,100  Level Boston Center
Tue 11:21:23 AM 44.8239 -70.7369 184° South 160 184 8,100  Level Boston Center
Tue 11:22:24 AM 44.7800 -70.7381 181° South 160 184 8,100  Level Boston Center
Tue 11:23:24 AM 44.7322 -70.7425 184° South 165 190 8,100  Level Boston Center
Tue 11:24:25 AM 44.6864 -70.7436 181° South 165 190 8,100  Level Boston Center
Tue 11:25:22 AM 44.6406 -70.7450 181° South 165 190 8,100  Level Boston Center
Tue 11:26:23 AM 44.5947 -70.7464 181° South 165 190 8,100  Level Boston Center
Tue 11:27:23 AM 44.5489 -70.7506 184° South 165 190 8,100  Level Boston Center
Tue 11:28:23 AM 44.5053 -70.7519 181° South 160 184 8,100  Level Boston Center
Tue 11:29:22 AM 44.4594 -70.7589 186° South 160 184 8,100  Level Boston Center
Tue 11:30:22 AM 44.4200 -70.7600 181° South 160 184 8,100  Level Boston Center
Tue 11:31:23 AM 44.3678 -70.7617 181° South 160 184 8,100  Level Boston Center
Tue 11:32:23 AM 44.3261 -70.7656 184° South 160 184 8,100  Level Boston Center
Tue 11:33:24 AM 44.2764 -70.7669 181° South 160 184 8,100  Level Boston Center
Tue 11:34:24 AM 44.2347 -70.7683 181° South 160 184 8,100  Level Boston Center
Tue 11:35:25 AM 44.1847 -70.7725 183° South 160 184 8,100  Level Boston Center
Tue 11:36:23 AM 44.1431 -70.7736 181° South 160 184 8,100  Level Boston Center
Tue 11:37:23 AM 44.0931 -70.7781 184° South 160 184 8,100  Level Boston Center
Tue 11:38:24 AM 44.0492 -70.7792 181° South 165 190 8,100  Level Boston Center
Tue 11:39:24 AM 43.9972 -70.7806 181° South 170 196 8,100  Level Boston Center
Tue 11:41:22 AM 43.9014 -70.7861 182° South 175 201 8,100  Level Boston Center
Tue 11:42:35 AM 43.8431 -70.7878 181° South 175 201 8,100  Level Boston Center
Tue 11:44:00 AM 43.7842 -70.7869 179° South  Level FlightAware Approximate
Tue 11:48:05 AM 43.5833 -70.8000 190° South 169 194 8,100  Level KA90
Tue 11:49:23 AM 43.5167 -70.8000 180° South 170 196 8,100  Level KA90
Tue 11:50:24 AM 43.4833 -70.8000 180° South 170 196 8,100  Level KA90
Tue 11:51:00 AM 43.4926 -70.7833 180° South  Level FlightAware Approximate
Tue 11:51:24 AM 43.4333 -70.8000 180° South 170 196 8,100  Level KA90
Tue 11:52:00 AM 43.4510 -70.7833 180° South  Level FlightAware Approximate
Tue 11:52:24 AM 43.3833 -70.8000 180° South 168 193 7,900  Level KA90
Tue 11:53:00 AM 43.4098 -70.7892 190° South  Level FlightAware Approximate
Tue 11:53:30 AM 43.3333 -70.8167 194° South 164 189 7,100  Level KA90
Tue 11:54:24 AM 43.2833 -70.8000 166° South 174 200 6,400 -650 Descending KA90
Tue 11:55:30 AM 43.2333 -70.7833 166° South 180 207 5,800 -571 Descending KA90
Tue 11:56:30 AM 43.2000 -70.7667 160° South 172 198 5,200 -650 Descending KA90
Tue 11:57:30 AM 43.1500 -70.7500 166° South 174 200 4,500 -650 Descending KA90
Tue 11:58:30 AM 43.1167 -70.7167 144° Southeast 165 190 3,900 -550 Descending KA90
Tue 11:59:30 AM 43.0667 -70.6833 154° Southeast 165 190 3,400 -550 Descending KA90
Tue 12:00:30 PM 43.0333 -70.6500 144° Southeast 164 189 2,800 -550 Descending KA90
Tue 12:01:30 PM 43.0000 -70.6000 132° Southeast 165 190 2,300 -350 Descending KA90
Tue 12:02:30 PM 42.9667 -70.6167 200° South 137 158 2,100 -100 Descending KA90
Tue 12:03:30 PM 42.9333 -70.6667 228° Southwest 126 145 2,100  Level KA90
Tue 12:04:36 PM 42.9500 -70.7167 294° West 127 146 2,100  Level KA90
Tue 12:05:30 PM 42.9667 -70.7333 324° Northwest 125 144 2,100 -250 Level KA90
Tue 12:06:36 PM 43.0000 -70.7500 340° North 110 127 1,600 -524 Descending KA90
Tue 12:07:36 PM 43.0167 -70.7833 304° West 106 122 1,000 -474 Descending KA90
Tue 12:08:30 PM 43.0500 -70.7833 360° North 97 112 700 -333 Descending KA90
Tue 12:10:00 PM 43.0667 -70.8167 285° West  Level FlightAware Approximate

Login

Don't have an account? Register now (free) for customized features, flight alerts, and more!